sensor_id;sensor_type;location;lat;lon;timestamp;P1;durP1;ratioP1;P2;durP2;ratioP2
5391;SDS011;2719;53.624;9.786;2022-09-09T00:00:55;19.57;;;14.47;;
5391;SDS011;2719;53.624;9.786;2022-09-09T00:03:27;20.30;;;13.93;;
5391;SDS011;2719;53.624;9.786;2022-09-09T00:06:05;23.80;;;15.83;;
5391;SDS011;2719;53.624;9.786;2022-09-09T00:08:40;21.30;;;14.20;;
5391;SDS011;2719;53.624;9.786;2022-09-09T00:11:15;19.17;;;13.00;;
5391;SDS011;2719;53.624;9.786;2022-09-09T00:13:48;25.50;;;15.63;;
5391;SDS011;2719;53.624;9.786;2022-09-09T00:16:21;20.43;;;14.53;;
5391;SDS011;2719;53.624;9.786;2022-09-09T00:18:52;20.20;;;13.70;;
5391;SDS011;2719;53.624;9.786;2022-09-09T00:21:28;23.30;;;13.33;;
5391;SDS011;2719;53.624;9.786;2022-09-09T00:23:58;19.40;;;13.60;;
5391;SDS011;2719;53.624;9.786;2022-09-09T00:26:30;24.13;;;15.10;;
5391;SDS011;2719;53.624;9.786;2022-09-09T00:29:03;25.37;;;15.33;;
5391;SDS011;2719;53.624;9.786;2022-09-09T00:31:40;22.10;;;14.40;;
5391;SDS011;2719;53.624;9.786;2022-09-09T00:34:09;22.33;;;13.90;;
5391;SDS011;2719;53.624;9.786;2022-09-09T00:36:40;20.97;;;14.33;;
5391;SDS011;2719;53.624;9.786;2022-09-09T00:39:09;28.83;;;14.77;;
5391;SDS011;2719;53.624;9.786;2022-09-09T00:41:44;25.03;;;14.20;;
5391;SDS011;2719;53.624;9.786;2022-09-09T00:44:25;21.57;;;14.20;;
5391;SDS011;2719;53.624;9.786;2022-09-09T00:47:04;21.37;;;14.63;;
5391;SDS011;2719;53.624;9.786;2022-09-09T00:49:47;17.47;;;11.90;;
5391;SDS011;2719;53.624;9.786;2022-09-09T00:52:28;19.43;;;13.40;;
5391;SDS011;2719;53.624;9.786;2022-09-09T00:55:05;22.13;;;13.37;;
5391;SDS011;2719;53.624;9.786;2022-09-09T00:57:40;17.87;;;12.50;;
5391;SDS011;2719;53.624;9.786;2022-09-09T01:00:17;17.80;;;12.20;;
5391;SDS011;2719;53.624;9.786;2022-09-09T01:02:48;21.60;;;14.17;;
5391;SDS011;2719;53.624;9.786;2022-09-09T01:05:30;18.40;;;12.80;;
5391;SDS011;2719;53.624;9.786;2022-09-09T01:08:05;21.87;;;14.17;;
5391;SDS011;2719;53.624;9.786;2022-09-09T01:10:48;24.90;;;13.50;;
5391;SDS011;2719;53.624;9.786;2022-09-09T01:13:19;18.37;;;12.27;;
5391;SDS011;2719;53.624;9.786;2022-09-09T01:15:50;18.47;;;13.07;;
5391;SDS011;2719;53.624;9.786;2022-09-09T01:18:19;15.17;;;11.97;;
5391;SDS011;2719;53.624;9.786;2022-09-09T01:20:53;17.30;;;11.97;;
5391;SDS011;2719;53.624;9.786;2022-09-09T01:23:30;19.10;;;12.50;;
5391;SDS011;2719;53.624;9.786;2022-09-09T01:26:29;18.77;;;12.30;;
5391;SDS011;2719;53.624;9.786;2022-09-09T01:28:58;15.40;;;9.87;;
5391;SDS011;2719;53.624;9.786;2022-09-09T01:31:26;19.70;;;12.20;;
5391;SDS011;2719;53.624;9.786;2022-09-09T01:33:58;24.63;;;11.93;;
5391;SDS011;2719;53.624;9.786;2022-09-09T01:36:26;16.20;;;10.70;;
5391;SDS011;2719;53.624;9.786;2022-09-09T01:38:58;17.03;;;11.70;;
5391;SDS011;2719;53.624;9.786;2022-09-09T01:41:25;17.57;;;11.07;;
5391;SDS011;2719;53.624;9.786;2022-09-09T01:43:53;16.10;;;10.90;;
5391;SDS011;2719;53.624;9.786;2022-09-09T01:46:21;16.00;;;9.10;;
5391;SDS011;2719;53.624;9.786;2022-09-09T01:48:50;15.60;;;9.27;;
5391;SDS011;2719;53.624;9.786;2022-09-09T01:51:18;13.50;;;9.03;;
5391;SDS011;2719;53.624;9.786;2022-09-09T01:53:45;18.57;;;8.83;;
5391;SDS011;2719;53.624;9.786;2022-09-09T01:56:17;13.20;;;9.60;;
5391;SDS011;2719;53.624;9.786;2022-09-09T01:59:01;11.20;;;8.07;;
5391;SDS011;2719;53.624;9.786;2022-09-09T02:01:40;12.50;;;8.20;;
5391;SDS011;2719;53.624;9.786;2022-09-09T02:04:18;10.80;;;7.67;;
5391;SDS011;2719;53.624;9.786;2022-09-09T02:06:58;24.43;;;9.10;;
5391;SDS011;2719;53.624;9.786;2022-09-09T02:09:26;14.67;;;8.30;;
5391;SDS011;2719;53.624;9.786;2022-09-09T02:11:57;17.63;;;9.90;;
5391;SDS011;2719;53.624;9.786;2022-09-09T02:14:30;13.07;;;8.70;;
5391;SDS011;2719;53.624;9.786;2022-09-09T02:17:01;12.87;;;8.97;;
5391;SDS011;2719;53.624;9.786;2022-09-09T02:19:32;14.33;;;10.00;;
5391;SDS011;2719;53.624;9.786;2022-09-09T02:22:02;13.27;;;9.40;;
5391;SDS011;2719;53.624;9.786;2022-09-09T02:24:30;14.93;;;9.00;;
5391;SDS011;2719;53.624;9.786;2022-09-09T02:27:01;10.37;;;7.30;;
5391;SDS011;2719;53.624;9.786;2022-09-09T02:29:35;10.00;;;7.10;;
5391;SDS011;2719;53.624;9.786;2022-09-09T02:32:06;9.53;;;6.80;;
5391;SDS011;2719;53.624;9.786;2022-09-09T02:34:35;9.27;;;6.60;;
5391;SDS011;2719;53.624;9.786;2022-09-09T02:37:06;12.10;;;7.23;;
5391;SDS011;2719;53.624;9.786;2022-09-09T02:39:34;17.40;;;8.20;;
5391;SDS011;2719;53.624;9.786;2022-09-09T02:42:00;8.87;;;6.20;;
5391;SDS011;2719;53.624;9.786;2022-09-09T02:44:28;8.83;;;6.77;;
5391;SDS011;2719;53.624;9.786;2022-09-09T02:47:00;9.33;;;6.90;;
5391;SDS011;2719;53.624;9.786;2022-09-09T02:49:43;13.67;;;8.00;;
5391;SDS011;2719;53.624;9.786;2022-09-09T02:52:17;12.20;;;7.07;;
5391;SDS011;2719;53.624;9.786;2022-09-09T02:54:47;13.53;;;7.73;;
5391;SDS011;2719;53.624;9.786;2022-09-09T02:57:19;9.10;;;6.83;;
5391;SDS011;2719;53.624;9.786;2022-09-09T02:59:49;10.67;;;7.07;;
5391;SDS011;2719;53.624;9.786;2022-09-09T03:02:19;8.87;;;6.57;;
5391;SDS011;2719;53.624;9.786;2022-09-09T03:04:45;12.10;;;7.13;;
5391;SDS011;2719;53.624;9.786;2022-09-09T03:07:15;9.53;;;7.60;;
5391;SDS011;2719;53.624;9.786;2022-09-09T03:09:42;13.67;;;7.17;;
5391;SDS011;2719;53.624;9.786;2022-09-09T03:12:09;12.23;;;7.13;;
5391;SDS011;2719;53.624;9.786;2022-09-09T03:14:36;10.10;;;7.20;;
5391;SDS011;2719;53.624;9.786;2022-09-09T03:17:03;12.77;;;8.87;;
5391;SDS011;2719;53.624;9.786;2022-09-09T03:19:32;11.47;;;7.60;;
5391;SDS011;2719;53.624;9.786;2022-09-09T03:22:00;13.63;;;9.20;;
5391;SDS011;2719;53.624;9.786;2022-09-09T03:24:27;11.60;;;8.30;;
5391;SDS011;2719;53.624;9.786;2022-09-09T03:26:53;12.70;;;8.13;;
5391;SDS011;2719;53.624;9.786;2022-09-09T03:29:20;12.63;;;8.27;;
5391;SDS011;2719;53.624;9.786;2022-09-09T03:31:47;15.13;;;8.43;;
5391;SDS011;2719;53.624;9.786;2022-09-09T03:34:15;11.40;;;7.47;;
5391;SDS011;2719;53.624;9.786;2022-09-09T03:36:43;14.63;;;8.63;;
5391;SDS011;2719;53.624;9.786;2022-09-09T03:39:10;15.53;;;9.17;;
5391;SDS011;2719;53.624;9.786;2022-09-09T03:41:37;16.60;;;9.17;;
5391;SDS011;2719;53.624;9.786;2022-09-09T03:44:03;17.73;;;8.30;;
5391;SDS011;2719;53.624;9.786;2022-09-09T03:46:30;13.60;;;7.90;;
5391;SDS011;2719;53.624;9.786;2022-09-09T03:48:57;13.30;;;8.70;;
5391;SDS011;2719;53.624;9.786;2022-09-09T03:51:23;11.00;;;7.00;;
5391;SDS011;2719;53.624;9.786;2022-09-09T03:53:51;13.47;;;8.10;;
5391;SDS011;2719;53.624;9.786;2022-09-09T03:56:23;11.37;;;7.67;;
5391;SDS011;2719;53.624;9.786;2022-09-09T03:58:49;12.20;;;7.27;;
5391;SDS011;2719;53.624;9.786;2022-09-09T04:01:16;11.00;;;7.97;;
5391;SDS011;2719;53.624;9.786;2022-09-09T04:03:43;10.90;;;7.30;;
5391;SDS011;2719;53.624;9.786;2022-09-09T04:06:10;10.43;;;7.63;;
5391;SDS011;2719;53.624;9.786;2022-09-09T04:08:38;14.23;;;7.43;;
5391;SDS011;2719;53.624;9.786;2022-09-09T04:11:06;13.00;;;7.37;;
5391;SDS011;2719;53.624;9.786;2022-09-09T04:13:33;10.67;;;7.17;;
5391;SDS011;2719;53.624;9.786;2022-09-09T04:16:02;12.33;;;7.00;;
5391;SDS011;2719;53.624;9.786;2022-09-09T04:18:29;10.17;;;6.90;;
5391;SDS011;2719;53.624;9.786;2022-09-09T04:20:56;20.60;;;8.00;;
5391;SDS011;2719;53.624;9.786;2022-09-09T04:23:24;11.87;;;7.30;;
5391;SDS011;2719;53.624;9.786;2022-09-09T04:25:53;13.07;;;7.83;;
5391;SDS011;2719;53.624;9.786;2022-09-09T04:28:22;10.83;;;7.17;;
5391;SDS011;2719;53.624;9.786;2022-09-09T04:30:51;8.77;;;6.10;;
5391;SDS011;2719;53.624;9.786;2022-09-09T04:33:18;14.90;;;5.67;;
5391;SDS011;2719;53.624;9.786;2022-09-09T04:35:45;14.87;;;6.70;;
5391;SDS011;2719;53.624;9.786;2022-09-09T04:38:13;12.80;;;7.03;;
5391;SDS011;2719;53.624;9.786;2022-09-09T04:40:41;10.30;;;6.30;;
5391;SDS011;2719;53.624;9.786;2022-09-09T04:43:09;9.30;;;5.30;;
5391;SDS011;2719;53.624;9.786;2022-09-09T04:45:37;10.70;;;6.37;;
5391;SDS011;2719;53.624;9.786;2022-09-09T04:48:05;12.97;;;7.50;;
5391;SDS011;2719;53.624;9.786;2022-09-09T04:50:32;8.03;;;6.20;;
5391;SDS011;2719;53.624;9.786;2022-09-09T04:52:59;10.80;;;6.00;;
5391;SDS011;2719;53.624;9.786;2022-09-09T04:55:26;11.67;;;6.17;;
5391;SDS011;2719;53.624;9.786;2022-09-09T04:57:53;10.63;;;6.13;;
5391;SDS011;2719;53.624;9.786;2022-09-09T05:00:20;9.83;;;5.80;;
5391;SDS011;2719;53.624;9.786;2022-09-09T05:02:48;11.80;;;6.10;;
5391;SDS011;2719;53.624;9.786;2022-09-09T05:05:15;12.40;;;6.50;;
5391;SDS011;2719;53.624;9.786;2022-09-09T05:07:41;9.23;;;5.50;;
5391;SDS011;2719;53.624;9.786;2022-09-09T05:10:08;12.50;;;6.23;;
5391;SDS011;2719;53.624;9.786;2022-09-09T05:12:35;8.07;;;5.20;;
5391;SDS011;2719;53.624;9.786;2022-09-09T05:15:02;7.10;;;4.23;;
5391;SDS011;2719;53.624;9.786;2022-09-09T05:17:29;9.63;;;4.33;;
5391;SDS011;2719;53.624;9.786;2022-09-09T05:19:57;7.03;;;4.07;;
5391;SDS011;2719;53.624;9.786;2022-09-09T05:22:23;7.70;;;4.23;;
5391;SDS011;2719;53.624;9.786;2022-09-09T05:24:50;9.87;;;3.83;;
5391;SDS011;2719;53.624;9.786;2022-09-09T05:27:16;7.67;;;3.63;;
5391;SDS011;2719;53.624;9.786;2022-09-09T05:29:44;6.80;;;3.10;;
5391;SDS011;2719;53.624;9.786;2022-09-09T05:32:11;10.33;;;3.53;;
5391;SDS011;2719;53.624;9.786;2022-09-09T05:34:38;6.83;;;3.57;;
5391;SDS011;2719;53.624;9.786;2022-09-09T05:37:06;9.60;;;3.40;;
5391;SDS011;2719;53.624;9.786;2022-09-09T05:39:33;11.20;;;3.90;;
5391;SDS011;2719;53.624;9.786;2022-09-09T05:42:01;9.77;;;3.13;;
5391;SDS011;2719;53.624;9.786;2022-09-09T05:44:29;4.80;;;3.00;;
5391;SDS011;2719;53.624;9.786;2022-09-09T05:46:56;4.93;;;3.50;;
5391;SDS011;2719;53.624;9.786;2022-09-09T05:49:23;5.27;;;2.80;;
5391;SDS011;2719;53.624;9.786;2022-09-09T05:51:50;11.53;;;3.20;;
5391;SDS011;2719;53.624;9.786;2022-09-09T05:54:18;7.27;;;2.53;;
5391;SDS011;2719;53.624;9.786;2022-09-09T05:56:44;3.33;;;2.40;;
5391;SDS011;2719;53.624;9.786;2022-09-09T05:59:11;6.43;;;2.90;;
5391;SDS011;2719;53.624;9.786;2022-09-09T06:01:38;5.23;;;2.67;;
5391;SDS011;2719;53.624;9.786;2022-09-09T06:04:05;3.43;;;2.40;;
5391;SDS011;2719;53.624;9.786;2022-09-09T06:06:32;3.97;;;2.23;;
5391;SDS011;2719;53.624;9.786;2022-09-09T06:09:02;4.10;;;1.73;;
5391;SDS011;2719;53.624;9.786;2022-09-09T06:11:33;5.07;;;2.10;;
5391;SDS011;2719;53.624;9.786;2022-09-09T06:14:01;7.50;;;1.97;;
5391;SDS011;2719;53.624;9.786;2022-09-09T06:16:28;4.93;;;2.00;;
5391;SDS011;2719;53.624;9.786;2022-09-09T06:18:57;5.90;;;2.87;;
5391;SDS011;2719;53.624;9.786;2022-09-09T06:21:25;2.90;;;2.07;;
5391;SDS011;2719;53.624;9.786;2022-09-09T06:23:52;4.57;;;2.30;;
5391;SDS011;2719;53.624;9.786;2022-09-09T06:26:20;3.67;;;1.50;;
5391;SDS011;2719;53.624;9.786;2022-09-09T06:28:50;6.53;;;2.27;;
5391;SDS011;2719;53.624;9.786;2022-09-09T06:31:19;4.73;;;1.63;;
5391;SDS011;2719;53.624;9.786;2022-09-09T06:33:48;5.20;;;2.20;;
5391;SDS011;2719;53.624;9.786;2022-09-09T06:36:16;7.50;;;1.87;;
5391;SDS011;2719;53.624;9.786;2022-09-09T06:38:44;8.07;;;2.23;;
5391;SDS011;2719;53.624;9.786;2022-09-09T06:41:12;5.80;;;2.30;;
5391;SDS011;2719;53.624;9.786;2022-09-09T06:43:41;9.30;;;2.00;;
5391;SDS011;2719;53.624;9.786;2022-09-09T06:46:10;7.23;;;2.30;;
5391;SDS011;2719;53.624;9.786;2022-09-09T06:48:38;3.73;;;1.33;;
5391;SDS011;2719;53.624;9.786;2022-09-09T06:51:07;4.33;;;2.07;;
5391;SDS011;2719;53.624;9.786;2022-09-09T06:53:36;3.30;;;1.93;;
5391;SDS011;2719;53.624;9.786;2022-09-09T06:56:16;4.07;;;1.53;;
5391;SDS011;2719;53.624;9.786;2022-09-09T06:58:45;3.93;;;2.00;;
5391;SDS011;2719;53.624;9.786;2022-09-09T07:01:16;6.43;;;1.90;;
5391;SDS011;2719;53.624;9.786;2022-09-09T07:03:45;6.60;;;1.60;;
5391;SDS011;2719;53.624;9.786;2022-09-09T07:06:13;4.83;;;1.97;;
5391;SDS011;2719;53.624;9.786;2022-09-09T07:08:42;3.30;;;1.87;;
5391;SDS011;2719;53.624;9.786;2022-09-09T07:11:08;6.10;;;2.20;;
5391;SDS011;2719;53.624;9.786;2022-09-09T07:13:36;4.43;;;1.87;;
5391;SDS011;2719;53.624;9.786;2022-09-09T07:16:03;2.23;;;2.03;;
5391;SDS011;2719;53.624;9.786;2022-09-09T07:18:33;4.73;;;2.03;;
5391;SDS011;2719;53.624;9.786;2022-09-09T07:21:00;5.70;;;1.97;;
5391;SDS011;2719;53.624;9.786;2022-09-09T07:23:28;5.20;;;1.90;;
5391;SDS011;2719;53.624;9.786;2022-09-09T07:25:55;11.40;;;1.67;;
5391;SDS011;2719;53.624;9.786;2022-09-09T07:28:23;8.60;;;2.43;;
5391;SDS011;2719;53.624;9.786;2022-09-09T07:30:54;2.80;;;1.67;;
5391;SDS011;2719;53.624;9.786;2022-09-09T07:33:21;5.03;;;2.20;;
5391;SDS011;2719;53.624;9.786;2022-09-09T07:35:50;2.23;;;1.20;;
5391;SDS011;2719;53.624;9.786;2022-09-09T07:38:17;2.67;;;1.93;;
5391;SDS011;2719;53.624;9.786;2022-09-09T07:40:44;3.70;;;1.43;;
5391;SDS011;2719;53.624;9.786;2022-09-09T07:43:11;4.77;;;1.87;;
5391;SDS011;2719;53.624;9.786;2022-09-09T07:45:38;4.43;;;2.10;;
5391;SDS011;2719;53.624;9.786;2022-09-09T07:48:05;4.07;;;1.57;;
5391;SDS011;2719;53.624;9.786;2022-09-09T07:50:32;5.30;;;1.80;;
5391;SDS011;2719;53.624;9.786;2022-09-09T07:53:00;3.37;;;2.07;;
5391;SDS011;2719;53.624;9.786;2022-09-09T07:55:27;7.10;;;1.60;;
5391;SDS011;2719;53.624;9.786;2022-09-09T07:57:55;5.00;;;2.00;;
5391;SDS011;2719;53.624;9.786;2022-09-09T08:00:22;3.70;;;1.90;;
5391;SDS011;2719;53.624;9.786;2022-09-09T08:02:48;4.90;;;1.53;;
5391;SDS011;2719;53.624;9.786;2022-09-09T08:05:15;7.17;;;2.30;;
5391;SDS011;2719;53.624;9.786;2022-09-09T08:07:43;3.90;;;1.30;;
5391;SDS011;2719;53.624;9.786;2022-09-09T08:10:12;7.20;;;1.33;;
5391;SDS011;2719;53.624;9.786;2022-09-09T08:12:39;2.03;;;1.63;;
5391;SDS011;2719;53.624;9.786;2022-09-09T08:15:06;2.97;;;1.70;;
5391;SDS011;2719;53.624;9.786;2022-09-09T08:17:33;4.90;;;2.00;;
5391;SDS011;2719;53.624;9.786;2022-09-09T08:20:00;4.17;;;2.20;;
5391;SDS011;2719;53.624;9.786;2022-09-09T08:22:29;2.43;;;1.90;;
5391;SDS011;2719;53.624;9.786;2022-09-09T08:24:56;3.17;;;1.73;;
5391;SDS011;2719;53.624;9.786;2022-09-09T08:27:24;5.40;;;2.63;;
5391;SDS011;2719;53.624;9.786;2022-09-09T08:29:51;3.20;;;2.13;;
5391;SDS011;2719;53.624;9.786;2022-09-09T08:32:18;5.40;;;2.13;;
5391;SDS011;2719;53.624;9.786;2022-09-09T08:34:44;10.43;;;2.57;;
5391;SDS011;2719;53.624;9.786;2022-09-09T08:37:12;5.27;;;2.30;;
5391;SDS011;2719;53.624;9.786;2022-09-09T08:39:39;8.03;;;2.30;;
5391;SDS011;2719;53.624;9.786;2022-09-09T08:42:12;3.67;;;2.10;;
5391;SDS011;2719;53.624;9.786;2022-09-09T08:45:02;7.43;;;2.10;;
5391;SDS011;2719;53.624;9.786;2022-09-09T08:48:03;7.57;;;3.17;;
5391;SDS011;2719;53.624;9.786;2022-09-09T08:50:38;4.17;;;2.13;;
5391;SDS011;2719;53.624;9.786;2022-09-09T08:53:09;8.10;;;2.07;;
5391;SDS011;2719;53.624;9.786;2022-09-09T08:55:41;3.83;;;2.00;;
5391;SDS011;2719;53.624;9.786;2022-09-09T08:58:15;5.33;;;2.10;;
5391;SDS011;2719;53.624;9.786;2022-09-09T09:00:46;3.63;;;1.57;;
5391;SDS011;2719;53.624;9.786;2022-09-09T09:03:26;5.97;;;1.57;;
5391;SDS011;2719;53.624;9.786;2022-09-09T09:06:01;2.03;;;1.17;;
5391;SDS011;2719;53.624;9.786;2022-09-09T09:08:36;6.57;;;1.80;;
5391;SDS011;2719;53.624;9.786;2022-09-09T09:11:10;3.20;;;1.53;;
5391;SDS011;2719;53.624;9.786;2022-09-09T09:13:41;4.47;;;1.63;;
5391;SDS011;2719;53.624;9.786;2022-09-09T09:16:14;5.63;;;1.40;;
5391;SDS011;2719;53.624;9.786;2022-09-09T09:18:48;3.80;;;1.40;;
5391;SDS011;2719;53.624;9.786;2022-09-09T09:21:16;4.17;;;1.37;;
5391;SDS011;2719;53.624;9.786;2022-09-09T09:23:51;3.60;;;1.20;;
5391;SDS011;2719;53.624;9.786;2022-09-09T09:26:22;3.10;;;1.30;;
5391;SDS011;2719;53.624;9.786;2022-09-09T09:28:53;6.37;;;1.70;;
5391;SDS011;2719;53.624;9.786;2022-09-09T09:31:22;5.80;;;1.97;;
5391;SDS011;2719;53.624;9.786;2022-09-09T09:33:52;4.27;;;1.43;;
5391;SDS011;2719;53.624;9.786;2022-09-09T09:36:20;2.10;;;1.10;;
5391;SDS011;2719;53.624;9.786;2022-09-09T09:38:54;4.30;;;0.90;;
5391;SDS011;2719;53.624;9.786;2022-09-09T09:41:28;2.30;;;0.80;;
5391;SDS011;2719;53.624;9.786;2022-09-09T09:43:58;3.77;;;0.90;;
5391;SDS011;2719;53.624;9.786;2022-09-09T09:46:26;3.57;;;0.90;;
5391;SDS011;2719;53.624;9.786;2022-09-09T09:48:56;3.87;;;0.90;;
5391;SDS011;2719;53.624;9.786;2022-09-09T09:51:24;1.83;;;0.90;;
5391;SDS011;2719;53.624;9.786;2022-09-09T09:53:51;4.17;;;1.10;;
5391;SDS011;2719;53.624;9.786;2022-09-09T09:56:26;2.20;;;0.80;;
5391;SDS011;2719;53.624;9.786;2022-09-09T09:58:53;3.70;;;1.13;;
5391;SDS011;2719;53.624;9.786;2022-09-09T10:01:23;2.83;;;0.60;;
5391;SDS011;2719;53.624;9.786;2022-09-09T10:03:53;4.20;;;0.97;;
5391;SDS011;2719;53.624;9.786;2022-09-09T10:06:29;1.83;;;0.70;;
5391;SDS011;2719;53.624;9.786;2022-09-09T10:08:57;2.40;;;0.60;;
5391;SDS011;2719;53.624;9.786;2022-09-09T10:11:27;2.50;;;0.60;;
5391;SDS011;2719;53.624;9.786;2022-09-09T10:14:05;3.13;;;0.47;;
5391;SDS011;2719;53.624;9.786;2022-09-09T10:16:45;1.37;;;0.43;;
5391;SDS011;2719;53.624;9.786;2022-09-09T10:19:21;2.60;;;0.43;;
5391;SDS011;2719;53.624;9.786;2022-09-09T10:21:58;1.07;;;0.40;;
5391;SDS011;2719;53.624;9.786;2022-09-09T10:24:38;2.37;;;0.40;;
5391;SDS011;2719;53.624;9.786;2022-09-09T10:27:19;3.37;;;0.57;;
5391;SDS011;2719;53.624;9.786;2022-09-09T10:29:58;1.33;;;0.40;;
5391;SDS011;2719;53.624;9.786;2022-09-09T10:32:37;2.23;;;0.60;;
5391;SDS011;2719;53.624;9.786;2022-09-09T10:35:12;3.00;;;0.50;;
5391;SDS011;2719;53.624;9.786;2022-09-09T10:37:50;2.17;;;0.50;;
5391;SDS011;2719;53.624;9.786;2022-09-09T10:40:31;0.80;;;0.30;;
5391;SDS011;2719;53.624;9.786;2022-09-09T10:43:03;0.80;;;0.40;;
5391;SDS011;2719;53.624;9.786;2022-09-09T10:45:41;2.60;;;0.40;;
5391;SDS011;2719;53.624;9.786;2022-09-09T10:48:24;2.40;;;0.60;;
5391;SDS011;2719;53.624;9.786;2022-09-09T10:51:13;4.73;;;0.40;;
5391;SDS011;2719;53.624;9.786;2022-09-09T10:53:52;6.07;;;0.50;;
5391;SDS011;2719;53.624;9.786;2022-09-09T10:56:25;2.00;;;0.50;;
5391;SDS011;2719;53.624;9.786;2022-09-09T10:58:54;2.43;;;0.40;;
5391;SDS011;2719;53.624;9.786;2022-09-09T11:01:27;1.97;;;0.60;;
5391;SDS011;2719;53.624;9.786;2022-09-09T11:03:59;2.00;;;0.50;;
5391;SDS011;2719;53.624;9.786;2022-09-09T11:06:31;3.27;;;0.40;;
5391;SDS011;2719;53.624;9.786;2022-09-09T11:09:03;1.93;;;0.47;;
5391;SDS011;2719;53.624;9.786;2022-09-09T11:11:32;3.33;;;0.40;;
5391;SDS011;2719;53.624;9.786;2022-09-09T11:14:03;1.73;;;0.50;;
5391;SDS011;2719;53.624;9.786;2022-09-09T11:16:39;1.23;;;0.57;;
5391;SDS011;2719;53.624;9.786;2022-09-09T11:19:13;2.30;;;0.97;;
5391;SDS011;2719;53.624;9.786;2022-09-09T11:21:46;2.23;;;0.53;;
5391;SDS011;2719;53.624;9.786;2022-09-09T11:24:16;1.90;;;0.50;;
5391;SDS011;2719;53.624;9.786;2022-09-09T11:26:47;2.70;;;0.53;;
5391;SDS011;2719;53.624;9.786;2022-09-09T11:29:23;1.57;;;0.60;;
5391;SDS011;2719;53.624;9.786;2022-09-09T11:32:06;1.43;;;0.40;;
5391;SDS011;2719;53.624;9.786;2022-09-09T11:34:47;1.20;;;0.40;;
5391;SDS011;2719;53.624;9.786;2022-09-09T11:37:37;3.63;;;0.93;;
5391;SDS011;2719;53.624;9.786;2022-09-09T11:40:31;1.77;;;0.50;;
5391;SDS011;2719;53.624;9.786;2022-09-09T11:43:00;3.80;;;1.43;;
5391;SDS011;2719;53.624;9.786;2022-09-09T11:45:30;1.00;;;0.40;;
5391;SDS011;2719;53.624;9.786;2022-09-09T11:48:01;2.50;;;0.50;;
5391;SDS011;2719;53.624;9.786;2022-09-09T11:50:34;1.00;;;0.40;;
5391;SDS011;2719;53.624;9.786;2022-09-09T11:53:04;5.33;;;0.50;;
5391;SDS011;2719;53.624;9.786;2022-09-09T11:58:37;1.83;;;0.50;;
5391;SDS011;2719;53.624;9.786;2022-09-09T12:01:13;2.13;;;0.50;;
5391;SDS011;2719;53.624;9.786;2022-09-09T12:03:41;2.50;;;0.63;;
5391;SDS011;2719;53.624;9.786;2022-09-09T12:06:15;4.30;;;0.67;;
5391;SDS011;2719;53.624;9.786;2022-09-09T12:08:46;4.40;;;0.90;;
5391;SDS011;2719;53.624;9.786;2022-09-09T12:11:26;1.33;;;0.57;;
5391;SDS011;2719;53.624;9.786;2022-09-09T12:13:54;4.77;;;0.70;;
5391;SDS011;2719;53.624;9.786;2022-09-09T12:16:29;3.20;;;0.90;;
5391;SDS011;2719;53.624;9.786;2022-09-09T12:19:03;1.43;;;0.80;;
5391;SDS011;2719;53.624;9.786;2022-09-09T12:21:34;3.57;;;0.57;;
5391;SDS011;2719;53.624;9.786;2022-09-09T12:24:06;1.83;;;0.43;;
5391;SDS011;2719;53.624;9.786;2022-09-09T12:26:37;2.30;;;0.57;;
5391;SDS011;2719;53.624;9.786;2022-09-09T12:29:15;3.43;;;0.50;;
5391;SDS011;2719;53.624;9.786;2022-09-09T12:31:55;4.23;;;0.63;;
5391;SDS011;2719;53.624;9.786;2022-09-09T12:34:30;3.37;;;0.60;;
5391;SDS011;2719;53.624;9.786;2022-09-09T12:37:04;1.50;;;0.50;;
5391;SDS011;2719;53.624;9.786;2022-09-09T12:39:35;4.10;;;0.87;;
5391;SDS011;2719;53.624;9.786;2022-09-09T12:42:15;6.30;;;1.00;;
5391;SDS011;2719;53.624;9.786;2022-09-09T12:44:50;4.93;;;0.60;;
5391;SDS011;2719;53.624;9.786;2022-09-09T12:47:17;4.70;;;0.50;;
5391;SDS011;2719;53.624;9.786;2022-09-09T12:49:46;2.10;;;0.50;;
5391;SDS011;2719;53.624;9.786;2022-09-09T12:52:17;8.00;;;0.60;;
5391;SDS011;2719;53.624;9.786;2022-09-09T12:54:48;1.00;;;0.47;;
5391;SDS011;2719;53.624;9.786;2022-09-09T12:57:17;2.70;;;0.60;;
5391;SDS011;2719;53.624;9.786;2022-09-09T12:59:43;2.70;;;0.57;;
5391;SDS011;2719;53.624;9.786;2022-09-09T13:02:17;8.83;;;1.10;;
5391;SDS011;2719;53.624;9.786;2022-09-09T13:04:46;2.77;;;0.60;;
5391;SDS011;2719;53.624;9.786;2022-09-09T13:07:16;2.00;;;0.53;;
5391;SDS011;2719;53.624;9.786;2022-09-09T13:09:44;2.60;;;0.67;;
5391;SDS011;2719;53.624;9.786;2022-09-09T13:12:13;4.77;;;0.77;;
5391;SDS011;2719;53.624;9.786;2022-09-09T13:14:43;2.17;;;0.50;;
5391;SDS011;2719;53.624;9.786;2022-09-09T13:17:17;2.37;;;0.60;;
5391;SDS011;2719;53.624;9.786;2022-09-09T13:19:46;1.70;;;0.50;;
5391;SDS011;2719;53.624;9.786;2022-09-09T13:22:20;1.63;;;0.50;;
5391;SDS011;2719;53.624;9.786;2022-09-09T13:24:48;5.40;;;0.90;;
5391;SDS011;2719;53.624;9.786;2022-09-09T13:27:28;4.20;;;0.70;;
5391;SDS011;2719;53.624;9.786;2022-09-09T13:29:58;3.53;;;0.87;;
5391;SDS011;2719;53.624;9.786;2022-09-09T13:32:25;5.80;;;0.80;;
5391;SDS011;2719;53.624;9.786;2022-09-09T13:34:54;3.73;;;0.80;;
5391;SDS011;2719;53.624;9.786;2022-09-09T13:37:26;8.27;;;0.77;;
5391;SDS011;2719;53.624;9.786;2022-09-09T13:39:55;4.40;;;1.03;;
5391;SDS011;2719;53.624;9.786;2022-09-09T13:42:24;3.23;;;0.63;;
5391;SDS011;2719;53.624;9.786;2022-09-09T13:44:52;2.20;;;0.60;;
5391;SDS011;2719;53.624;9.786;2022-09-09T13:47:21;0.80;;;0.40;;
5391;SDS011;2719;53.624;9.786;2022-09-09T13:49:53;1.80;;;0.40;;
5391;SDS011;2719;53.624;9.786;2022-09-09T13:52:19;2.07;;;0.50;;
5391;SDS011;2719;53.624;9.786;2022-09-09T13:54:48;2.87;;;1.47;;
5391;SDS011;2719;53.624;9.786;2022-09-09T13:57:16;0.70;;;0.40;;
5391;SDS011;2719;53.624;9.786;2022-09-09T13:59:45;1.17;;;0.40;;
5391;SDS011;2719;53.624;9.786;2022-09-09T14:02:12;5.40;;;0.70;;
5391;SDS011;2719;53.624;9.786;2022-09-09T14:04:39;1.13;;;0.40;;
5391;SDS011;2719;53.624;9.786;2022-09-09T14:07:08;2.20;;;0.60;;
5391;SDS011;2719;53.624;9.786;2022-09-09T14:09:38;1.93;;;0.70;;
5391;SDS011;2719;53.624;9.786;2022-09-09T14:12:08;2.70;;;0.73;;
5391;SDS011;2719;53.624;9.786;2022-09-09T14:14:35;4.53;;;0.50;;
5391;SDS011;2719;53.624;9.786;2022-09-09T14:17:02;2.33;;;0.73;;
5391;SDS011;2719;53.624;9.786;2022-09-09T14:19:29;2.40;;;0.60;;
5391;SDS011;2719;53.624;9.786;2022-09-09T14:21:56;1.63;;;0.60;;
5391;SDS011;2719;53.624;9.786;2022-09-09T14:24:22;2.97;;;0.60;;
5391;SDS011;2719;53.624;9.786;2022-09-09T14:26:50;2.40;;;0.53;;
5391;SDS011;2719;53.624;9.786;2022-09-09T14:29:18;2.87;;;0.50;;
5391;SDS011;2719;53.624;9.786;2022-09-09T14:31:45;6.43;;;0.90;;
5391;SDS011;2719;53.624;9.786;2022-09-09T14:34:12;1.87;;;0.60;;
5391;SDS011;2719;53.624;9.786;2022-09-09T14:36:39;1.67;;;0.57;;
5391;SDS011;2719;53.624;9.786;2022-09-09T14:39:06;2.33;;;0.63;;
5391;SDS011;2719;53.624;9.786;2022-09-09T14:41:33;4.10;;;0.70;;
5391;SDS011;2719;53.624;9.786;2022-09-09T14:43:59;1.23;;;0.50;;
5391;SDS011;2719;53.624;9.786;2022-09-09T14:46:27;3.80;;;0.60;;
5391;SDS011;2719;53.624;9.786;2022-09-09T14:48:54;2.63;;;0.80;;
5391;SDS011;2719;53.624;9.786;2022-09-09T14:51:21;1.70;;;0.60;;
5391;SDS011;2719;53.624;9.786;2022-09-09T14:53:50;2.20;;;0.80;;
5391;SDS011;2719;53.624;9.786;2022-09-09T14:56:19;5.67;;;1.00;;
5391;SDS011;2719;53.624;9.786;2022-09-09T14:58:48;6.40;;;1.00;;
5391;SDS011;2719;53.624;9.786;2022-09-09T15:01:16;2.13;;;0.97;;
5391;SDS011;2719;53.624;9.786;2022-09-09T15:03:49;2.37;;;0.50;;
5391;SDS011;2719;53.624;9.786;2022-09-09T15:06:17;1.57;;;0.70;;
5391;SDS011;2719;53.624;9.786;2022-09-09T15:08:44;4.80;;;0.90;;
5391;SDS011;2719;53.624;9.786;2022-09-09T15:11:12;3.60;;;0.80;;
5391;SDS011;2719;53.624;9.786;2022-09-09T15:13:40;2.00;;;0.70;;
5391;SDS011;2719;53.624;9.786;2022-09-09T15:16:08;3.53;;;0.73;;
5391;SDS011;2719;53.624;9.786;2022-09-09T15:18:36;3.17;;;0.90;;
5391;SDS011;2719;53.624;9.786;2022-09-09T15:21:06;5.50;;;0.70;;
5391;SDS011;2719;53.624;9.786;2022-09-09T15:23:33;1.10;;;0.73;;
5391;SDS011;2719;53.624;9.786;2022-09-09T15:26:00;3.57;;;0.70;;
5391;SDS011;2719;53.624;9.786;2022-09-09T15:28:27;2.10;;;1.07;;
5391;SDS011;2719;53.624;9.786;2022-09-09T15:30:53;1.67;;;0.77;;
5391;SDS011;2719;53.624;9.786;2022-09-09T15:33:22;2.50;;;0.57;;